sensor_id;sensor_type;location;lat;lon;timestamp;temperature;humidity
73780;SHT30;62093;37.614;15.072;2023-06-01T00:01:49;19.45;68.34
73780;SHT30;62093;37.614;15.072;2023-06-01T00:04:15;19.43;68.39
73780;SHT30;62093;37.614;15.072;2023-06-01T00:06:43;19.45;68.39
73780;SHT30;62093;37.614;15.072;2023-06-01T00:09:09;19.43;68.29
73780;SHT30;62093;37.614;15.072;2023-06-01T00:11:35;19.45;68.36
73780;SHT30;62093;37.614;15.072;2023-06-01T00:14:02;19.45;68.46
73780;SHT30;62093;37.614;15.072;2023-06-01T00:16:28;19.43;68.45
73780;SHT30;62093;37.614;15.072;2023-06-01T00:18:57;19.43;68.41
73780;SHT30;62093;37.614;15.072;2023-06-01T00:21:27;19.42;68.47
73780;SHT30;62093;37.614;15.072;2023-06-01T00:23:53;19.42;68.51
73780;SHT30;62093;37.614;15.072;2023-06-01T00:26:19;19.40;68.32
73780;SHT30;62093;37.614;15.072;2023-06-01T00:28:49;19.40;68.49
73780;SHT30;62093;37.614;15.072;2023-06-01T00:31:15;19.42;68.45
73780;SHT30;62093;37.614;15.072;2023-06-01T00:33:41;19.39;68.56
73780;SHT30;62093;37.614;15.072;2023-06-01T00:36:07;19.42;68.55
73780;SHT30;62093;37.614;15.072;2023-06-01T00:38:33;19.39;68.55
73780;SHT30;62093;37.614;15.072;2023-06-01T00:40:59;19.39;68.54
73780;SHT30;62093;37.614;15.072;2023-06-01T00:43:26;19.39;68.55
73780;SHT30;62093;37.614;15.072;2023-06-01T00:45:52;19.39;68.57
73780;SHT30;62093;37.614;15.072;2023-06-01T00:48:18;19.36;68.60
73780;SHT30;62093;37.614;15.072;2023-06-01T00:50:46;19.40;68.58
73780;SHT30;62093;37.614;15.072;2023-06-01T00:53:17;19.39;68.61
73780;SHT30;62093;37.614;15.072;2023-06-01T00:55:45;19.37;68.54
73780;SHT30;62093;37.614;15.072;2023-06-01T00:58:15;19.37;68.41
73780;SHT30;62093;37.614;15.072;2023-06-01T01:00:41;19.37;68.69
73780;SHT30;62093;37.614;15.072;2023-06-01T01:03:07;19.37;68.67
73780;SHT30;62093;37.614;15.072;2023-06-01T01:05:36;19.37;68.68
73780;SHT30;62093;37.614;15.072;2023-06-01T01:15:56;19.35;68.76
73780;SHT30;62093;37.614;15.072;2023-06-01T01:18:50;19.35;68.81
73780;SHT30;62093;37.614;15.072;2023-06-01T01:21:21;19.33;68.84
73780;SHT30;62093;37.614;15.072;2023-06-01T01:24:23;19.33;68.80
73780;SHT30;62093;37.614;15.072;2023-06-01T01:29:45;19.32;68.86
73780;SHT30;62093;37.614;15.072;2023-06-01T01:32:12;19.32;68.94
73780;SHT30;62093;37.614;15.072;2023-06-01T01:34:40;19.29;68.95
73780;SHT30;62093;37.614;15.072;2023-06-01T01:37:08;19.27;68.97
73780;SHT30;62093;37.614;15.072;2023-06-01T01:39:34;19.26;69.05
73780;SHT30;62093;37.614;15.072;2023-06-01T01:42:00;19.26;69.07
73780;SHT30;62093;37.614;15.072;2023-06-01T01:44:27;19.29;69.06
73780;SHT30;62093;37.614;15.072;2023-06-01T01:47:10;19.26;69.05
73780;SHT30;62093;37.614;15.072;2023-06-01T01:49:43;19.25;69.07
73780;SHT30;62093;37.614;15.072;2023-06-01T01:52:24;19.27;69.11
73780;SHT30;62093;37.614;15.072;2023-06-01T01:54:52;19.27;69.11
73780;SHT30;62093;37.614;15.072;2023-06-01T01:57:19;19.26;69.10
73780;SHT30;62093;37.614;15.072;2023-06-01T01:59:47;19.26;69.11
73780;SHT30;62093;37.614;15.072;2023-06-01T02:02:13;19.26;69.12
73780;SHT30;62093;37.614;15.072;2023-06-01T02:04:43;19.26;69.10
73780;SHT30;62093;37.614;15.072;2023-06-01T02:07:09;19.23;69.13
73780;SHT30;62093;37.614;15.072;2023-06-01T02:09:36;19.25;69.10
73780;SHT30;62093;37.614;15.072;2023-06-01T02:12:03;19.25;69.12
73780;SHT30;62093;37.614;15.072;2023-06-01T02:14:32;19.26;69.13
73780;SHT30;62093;37.614;15.072;2023-06-01T02:16:57;19.26;69.11
73780;SHT30;62093;37.614;15.072;2023-06-01T02:19:27;19.25;69.18
73780;SHT30;62093;37.614;15.072;2023-06-01T02:21:53;19.27;69.20
73780;SHT30;62093;37.614;15.072;2023-06-01T02:24:19;19.26;69.13
73780;SHT30;62093;37.614;15.072;2023-06-01T02:26:45;19.25;69.14
73780;SHT30;62093;37.614;15.072;2023-06-01T02:29:12;19.22;69.18
73780;SHT30;62093;37.614;15.072;2023-06-01T02:31:38;19.23;69.24
73780;SHT30;62093;37.614;15.072;2023-06-01T02:34:04;19.20;69.18
73780;SHT30;62093;37.614;15.072;2023-06-01T02:36:30;19.23;69.22
73780;SHT30;62093;37.614;15.072;2023-06-01T02:38:58;19.23;69.22
73780;SHT30;62093;37.614;15.072;2023-06-01T02:41:24;19.23;69.27
73780;SHT30;62093;37.614;15.072;2023-06-01T02:43:50;19.25;69.23
73780;SHT30;62093;37.614;15.072;2023-06-01T02:46:17;19.22;69.29
73780;SHT30;62093;37.614;15.072;2023-06-01T02:48:44;19.23;69.21
73780;SHT30;62093;37.614;15.072;2023-06-01T02:51:10;19.22;69.30
73780;SHT30;62093;37.614;15.072;2023-06-01T02:53:36;19.20;69.30
73780;SHT30;62093;37.614;15.072;2023-06-01T02:56:05;19.20;69.26
73780;SHT30;62093;37.614;15.072;2023-06-01T02:58:43;19.18;69.31
73780;SHT30;62093;37.614;15.072;2023-06-01T03:01:26;19.20;69.33
73780;SHT30;62093;37.614;15.072;2023-06-01T03:03:53;19.20;69.32
73780;SHT30;62093;37.614;15.072;2023-06-01T03:06:20;19.19;69.30
73780;SHT30;62093;37.614;15.072;2023-06-01T03:09:27;19.18;69.34
73780;SHT30;62093;37.614;15.072;2023-06-01T03:12:16;19.19;69.31
73780;SHT30;62093;37.614;15.072;2023-06-01T03:14:42;19.20;69.29
73780;SHT30;62093;37.614;15.072;2023-06-01T03:17:08;19.22;69.28
73780;SHT30;62093;37.614;15.072;2023-06-01T03:19:35;19.22;69.26
73780;SHT30;62093;37.614;15.072;2023-06-01T03:22:07;19.23;69.22
73780;SHT30;62093;37.614;15.072;2023-06-01T03:24:34;19.19;69.22
73780;SHT30;62093;37.614;15.072;2023-06-01T03:27:03;19.22;69.22
73780;SHT30;62093;37.614;15.072;2023-06-01T03:29:33;19.20;69.25
73780;SHT30;62093;37.614;15.072;2023-06-01T03:31:59;19.19;69.23
73780;SHT30;62093;37.614;15.072;2023-06-01T03:34:26;19.20;69.22
73780;SHT30;62093;37.614;15.072;2023-06-01T03:36:53;19.20;69.21
73780;SHT30;62093;37.614;15.072;2023-06-01T03:39:19;19.19;69.25
73780;SHT30;62093;37.614;15.072;2023-06-01T03:41:45;19.18;69.33
73780;SHT30;62093;37.614;15.072;2023-06-01T03:44:12;19.19;69.33
73780;SHT30;62093;37.614;15.072;2023-06-01T03:46:39;19.20;69.29
73780;SHT30;62093;37.614;15.072;2023-06-01T03:49:05;19.16;69.28
73780;SHT30;62093;37.614;15.072;2023-06-01T03:51:31;19.19;69.32
73780;SHT30;62093;37.614;15.072;2023-06-01T03:53:58;19.16;69.31
73780;SHT30;62093;37.614;15.072;2023-06-01T03:56:24;19.15;69.33
73780;SHT30;62093;37.614;15.072;2023-06-01T03:58:52;19.18;69.33
73780;SHT30;62093;37.614;15.072;2023-06-01T04:01:19;19.15;69.32
73780;SHT30;62093;37.614;15.072;2023-06-01T04:03:47;19.19;69.32
73780;SHT30;62093;37.614;15.072;2023-06-01T04:06:14;19.16;69.32
73780;SHT30;62093;37.614;15.072;2023-06-01T04:08:44;19.16;69.28
73780;SHT30;62093;37.614;15.072;2023-06-01T04:11:16;19.16;69.32
73780;SHT30;62093;37.614;15.072;2023-06-01T04:13:43;19.14;69.31
73780;SHT30;62093;37.614;15.072;2023-06-01T04:16:10;19.15;69.32
73780;SHT30;62093;37.614;15.072;2023-06-01T04:18:37;19.15;69.30
73780;SHT30;62093;37.614;15.072;2023-06-01T04:21:03;19.15;69.22
73780;SHT30;62093;37.614;15.072;2023-06-01T04:23:29;19.12;69.28
73780;SHT30;62093;37.614;15.072;2023-06-01T04:25:56;19.16;69.25
73780;SHT30;62093;37.614;15.072;2023-06-01T04:28:29;19.14;69.27
73780;SHT30;62093;37.614;15.072;2023-06-01T04:30:56;19.12;69.32
73780;SHT30;62093;37.614;15.072;2023-06-01T04:33:23;19.11;69.28
73780;SHT30;62093;37.614;15.072;2023-06-01T04:35:51;19.09;69.38
73780;SHT30;62093;37.614;15.072;2023-06-01T04:38:22;19.09;69.42
73780;SHT30;62093;37.614;15.072;2023-06-01T04:40:51;19.09;69.29
73780;SHT30;62093;37.614;15.072;2023-06-01T04:43:19;19.11;69.39
73780;SHT30;62093;37.614;15.072;2023-06-01T04:45:46;19.09;69.28
73780;SHT30;62093;37.614;15.072;2023-06-01T04:48:12;19.09;69.42
73780;SHT30;62093;37.614;15.072;2023-06-01T04:50:53;19.08;69.36
73780;SHT30;62093;37.614;15.072;2023-06-01T04:53:20;19.09;69.44
73780;SHT30;62093;37.614;15.072;2023-06-01T04:55:48;19.15;69.29
73780;SHT30;62093;37.614;15.072;2023-06-01T04:58:14;19.14;69.05
73780;SHT30;62093;37.614;15.072;2023-06-01T05:00:40;19.16;69.21
73780;SHT30;62093;37.614;15.072;2023-06-01T05:03:05;19.14;69.17
73780;SHT30;62093;37.614;15.072;2023-06-01T05:05:32;19.15;69.21
73780;SHT30;62093;37.614;15.072;2023-06-01T05:07:58;19.16;69.23
73780;SHT30;62093;37.614;15.072;2023-06-01T05:10:23;19.12;69.15
73780;SHT30;62093;37.614;15.072;2023-06-01T05:12:49;19.14;69.18
73780;SHT30;62093;37.614;15.072;2023-06-01T05:15:17;19.12;69.26
73780;SHT30;62093;37.614;15.072;2023-06-01T05:17:44;19.15;69.21
73780;SHT30;62093;37.614;15.072;2023-06-01T05:20:15;19.14;69.22
73780;SHT30;62093;37.614;15.072;2023-06-01T05:22:49;19.18;69.25
73780;SHT30;62093;37.614;15.072;2023-06-01T05:25:15;19.16;69.13
73780;SHT30;62093;37.614;15.072;2023-06-01T05:27:43;19.15;69.19
73780;SHT30;62093;37.614;15.072;2023-06-01T05:30:09;19.20;69.10
73780;SHT30;62093;37.614;15.072;2023-06-01T05:32:36;19.19;69.13
73780;SHT30;62093;37.614;15.072;2023-06-01T05:35:09;19.19;69.04
73780;SHT30;62093;37.614;15.072;2023-06-01T05:37:35;19.20;69.07
73780;SHT30;62093;37.614;15.072;2023-06-01T05:40:01;19.20;69.10
73780;SHT30;62093;37.614;15.072;2023-06-01T05:42:30;19.25;69.01
73780;SHT30;62093;37.614;15.072;2023-06-01T05:44:56;19.23;69.06
73780;SHT30;62093;37.614;15.072;2023-06-01T05:47:22;19.22;69.02
73780;SHT30;62093;37.614;15.072;2023-06-01T05:49:48;19.26;69.01
73780;SHT30;62093;37.614;15.072;2023-06-01T05:52:14;19.25;68.99
73780;SHT30;62093;37.614;15.072;2023-06-01T05:54:40;19.25;68.98
73780;SHT30;62093;37.614;15.072;2023-06-01T05:57:06;19.25;68.97
73780;SHT30;62093;37.614;15.072;2023-06-01T05:59:32;19.25;69.01
73780;SHT30;62093;37.614;15.072;2023-06-01T06:01:59;19.26;68.95
73780;SHT30;62093;37.614;15.072;2023-06-01T06:04:25;19.27;68.88
73780;SHT30;62093;37.614;15.072;2023-06-01T06:06:51;19.30;68.91
73780;SHT30;62093;37.614;15.072;2023-06-01T06:09:17;19.30;68.86
73780;SHT30;62093;37.614;15.072;2023-06-01T06:11:43;19.30;68.80
73780;SHT30;62093;37.614;15.072;2023-06-01T06:14:09;19.30;68.79
73780;SHT30;62093;37.614;15.072;2023-06-01T06:16:37;19.33;68.80
73780;SHT30;62093;37.614;15.072;2023-06-01T06:19:02;19.32;68.80
73780;SHT30;62093;37.614;15.072;2023-06-01T06:21:28;19.32;68.77
73780;SHT30;62093;37.614;15.072;2023-06-01T06:23:54;19.35;68.77
73780;SHT30;62093;37.614;15.072;2023-06-01T06:26:25;19.35;68.71
73780;SHT30;62093;37.614;15.072;2023-06-01T06:28:54;19.35;68.69
73780;SHT30;62093;37.614;15.072;2023-06-01T06:31:21;19.35;68.68
73780;SHT30;62093;37.614;15.072;2023-06-01T06:33:47;19.39;68.67
73780;SHT30;62093;37.614;15.072;2023-06-01T06:36:13;19.36;68.64
73780;SHT30;62093;37.614;15.072;2023-06-01T06:38:39;19.37;68.61
73780;SHT30;62093;37.614;15.072;2023-06-01T06:41:04;19.39;68.65
73780;SHT30;62093;37.614;15.072;2023-06-01T06:43:30;19.39;68.64
73780;SHT30;62093;37.614;15.072;2023-06-01T06:45:56;19.36;68.60
73780;SHT30;62093;37.614;15.072;2023-06-01T06:48:22;19.40;68.66
73780;SHT30;62093;37.614;15.072;2023-06-01T06:50:47;19.40;68.58
73780;SHT30;62093;37.614;15.072;2023-06-01T06:53:13;19.40;68.58
73780;SHT30;62093;37.614;15.072;2023-06-01T06:55:39;19.40;68.60
73780;SHT30;62093;37.614;15.072;2023-06-01T06:58:05;19.42;68.57
73780;SHT30;62093;37.614;15.072;2023-06-01T07:00:31;19.40;68.62
73780;SHT30;62093;37.614;15.072;2023-06-01T07:02:57;19.42;68.55
73780;SHT30;62093;37.614;15.072;2023-06-01T07:05:25;19.42;68.58
73780;SHT30;62093;37.614;15.072;2023-06-01T07:07:50;19.43;68.56
73780;SHT30;62093;37.614;15.072;2023-06-01T07:10:16;19.43;68.54
73780;SHT30;62093;37.614;15.072;2023-06-01T07:12:42;19.45;68.59
73780;SHT30;62093;37.614;15.072;2023-06-01T07:15:08;19.45;68.59
73780;SHT30;62093;37.614;15.072;2023-06-01T07:17:34;19.46;68.61
73780;SHT30;62093;37.614;15.072;2023-06-01T07:20:02;19.43;68.62
73780;SHT30;62093;37.614;15.072;2023-06-01T07:22:38;19.46;68.60
73780;SHT30;62093;37.614;15.072;2023-06-01T07:25:05;19.46;68.61
73780;SHT30;62093;37.614;15.072;2023-06-01T07:27:31;19.47;68.62
73780;SHT30;62093;37.614;15.072;2023-06-01T07:30:02;19.46;68.62
73780;SHT30;62093;37.614;15.072;2023-06-01T07:32:28;19.49;68.53
73780;SHT30;62093;37.614;15.072;2023-06-01T07:34:54;19.50;68.59
73780;SHT30;62093;37.614;15.072;2023-06-01T07:37:23;19.52;68.62
73780;SHT30;62093;37.614;15.072;2023-06-01T07:39:53;19.52;68.51
73780;SHT30;62093;37.614;15.072;2023-06-01T07:42:20;19.52;68.53
73780;SHT30;62093;37.614;15.072;2023-06-01T07:44:46;19.53;68.49
73780;SHT30;62093;37.614;15.072;2023-06-01T07:47:12;19.53;68.48
73780;SHT30;62093;37.614;15.072;2023-06-01T07:49:38;19.53;68.47
73780;SHT30;62093;37.614;15.072;2023-06-01T07:52:05;19.54;68.45
73780;SHT30;62093;37.614;15.072;2023-06-01T07:54:32;19.54;68.44
73780;SHT30;62093;37.614;15.072;2023-06-01T07:56:58;19.56;68.47
73780;SHT30;62093;37.614;15.072;2023-06-01T07:59:24;19.54;68.39
73780;SHT30;62093;37.614;15.072;2023-06-01T08:01:50;19.54;68.38
73780;SHT30;62093;37.614;15.072;2023-06-01T08:04:18;19.56;68.40
73780;SHT30;62093;37.614;15.072;2023-06-01T08:06:47;19.54;68.35
73780;SHT30;62093;37.614;15.072;2023-06-01T08:09:13;19.57;68.35
73780;SHT30;62093;37.614;15.072;2023-06-01T08:11:39;19.57;68.37
73780;SHT30;62093;37.614;15.072;2023-06-01T08:14:05;19.56;68.31
73780;SHT30;62093;37.614;15.072;2023-06-01T08:16:34;19.60;68.28
73780;SHT30;62093;37.614;15.072;2023-06-01T08:19:00;19.60;68.28
73780;SHT30;62093;37.614;15.072;2023-06-01T08:21:26;19.60;68.29
73780;SHT30;62093;37.614;15.072;2023-06-01T08:23:52;19.60;68.24
73780;SHT30;62093;37.614;15.072;2023-06-01T08:26:21;19.62;68.27
73780;SHT30;62093;37.614;15.072;2023-06-01T08:28:47;19.62;68.25
73780;SHT30;62093;37.614;15.072;2023-06-01T08:31:19;19.62;68.23
73780;SHT30;62093;37.614;15.072;2023-06-01T08:33:45;19.64;68.22
73780;SHT30;62093;37.614;15.072;2023-06-01T08:36:11;19.64;68.19
73780;SHT30;62093;37.614;15.072;2023-06-01T08:38:37;19.64;68.20
73780;SHT30;62093;37.614;15.072;2023-06-01T08:41:11;19.62;68.18
73780;SHT30;62093;37.614;15.072;2023-06-01T08:43:40;19.64;68.15
73780;SHT30;62093;37.614;15.072;2023-06-01T08:46:06;19.66;68.16
73780;SHT30;62093;37.614;15.072;2023-06-01T08:48:33;19.64;68.16
73780;SHT30;62093;37.614;15.072;2023-06-01T08:51:00;19.66;68.14
73780;SHT30;62093;37.614;15.072;2023-06-01T08:53:28;19.69;68.13
73780;SHT30;62093;37.614;15.072;2023-06-01T08:55:56;19.69;68.12
73780;SHT30;62093;37.614;15.072;2023-06-01T08:58:22;19.69;68.15
73780;SHT30;62093;37.614;15.072;2023-06-01T09:00:51;19.71;68.08
73780;SHT30;62093;37.614;15.072;2023-06-01T09:03:19;19.70;68.08
73780;SHT30;62093;37.614;15.072;2023-06-01T09:05:45;19.71;68.08
73780;SHT30;62093;37.614;15.072;2023-06-01T09:08:12;19.74;68.07
73780;SHT30;62093;37.614;15.072;2023-06-01T09:10:37;19.74;68.04
73780;SHT30;62093;37.614;15.072;2023-06-01T09:13:03;19.71;68.02
73780;SHT30;62093;37.614;15.072;2023-06-01T09:15:29;19.74;68.04
73780;SHT30;62093;37.614;15.072;2023-06-01T09:18:09;19.76;68.04
73780;SHT30;62093;37.614;15.072;2023-06-01T09:20:40;19.74;68.01
73780;SHT30;62093;37.614;15.072;2023-06-01T09:23:06;19.76;67.98
73780;SHT30;62093;37.614;15.072;2023-06-01T09:25:33;19.76;67.97
73780;SHT30;62093;37.614;15.072;2023-06-01T09:28:00;19.77;67.97
73780;SHT30;62093;37.614;15.072;2023-06-01T09:30:43;19.80;67.94
73780;SHT30;62093;37.614;15.072;2023-06-01T09:33:15;19.78;67.95
73780;SHT30;62093;37.614;15.072;2023-06-01T09:38:11;19.81;67.89
73780;SHT30;62093;37.614;15.072;2023-06-01T09:40:38;19.80;67.87
73780;SHT30;62093;37.614;15.072;2023-06-01T09:43:21;19.81;67.91
73780;SHT30;62093;37.614;15.072;2023-06-01T09:46:07;19.80;67.88
73780;SHT30;62093;37.614;15.072;2023-06-01T09:48:33;19.83;67.85
73780;SHT30;62093;37.614;15.072;2023-06-01T09:50:59;19.81;67.80
73780;SHT30;62093;37.614;15.072;2023-06-01T09:53:25;19.86;67.82
73780;SHT30;62093;37.614;15.072;2023-06-01T09:55:59;19.84;67.80
73780;SHT30;62093;37.614;15.072;2023-06-01T09:58:26;19.86;67.74
73780;SHT30;62093;37.614;15.072;2023-06-01T10:00:52;19.86;67.73
73780;SHT30;62093;37.614;15.072;2023-06-01T10:03:20;19.87;67.74
73780;SHT30;62093;37.614;15.072;2023-06-01T10:05:48;19.86;67.71
73780;SHT30;62093;37.614;15.072;2023-06-01T10:08:16;19.87;67.70
73780;SHT30;62093;37.614;15.072;2023-06-01T10:10:44;19.88;67.67
73780;SHT30;62093;37.614;15.072;2023-06-01T10:13:11;19.88;67.67
73780;SHT30;62093;37.614;15.072;2023-06-01T10:15:37;19.88;67.65
73780;SHT30;62093;37.614;15.072;2023-06-01T10:18:04;19.91;67.64
73780;SHT30;62093;37.614;15.072;2023-06-01T10:20:34;19.91;67.59
73780;SHT30;62093;37.614;15.072;2023-06-01T10:23:01;19.91;67.59
73780;SHT30;62093;37.614;15.072;2023-06-01T10:25:40;19.93;67.59
73780;SHT30;62093;37.614;15.072;2023-06-01T10:28:11;19.94;67.47
73780;SHT30;62093;37.614;15.072;2023-06-01T10:30:37;19.94;67.47
73780;SHT30;62093;37.614;15.072;2023-06-01T10:33:03;19.94;67.46
73780;SHT30;62093;37.614;15.072;2023-06-01T10:43:01;19.97;67.39
73780;SHT30;62093;37.614;15.072;2023-06-01T10:48:00;20.00;67.33
73780;SHT30;62093;37.614;15.072;2023-06-01T10:50:26;19.98;67.35
73780;SHT30;62093;37.614;15.072;2023-06-01T10:52:54;20.03;67.30
73780;SHT30;62093;37.614;15.072;2023-06-01T10:55:24;20.01;67.27
73780;SHT30;62093;37.614;15.072;2023-06-01T10:57:50;20.03;67.25
73780;SHT30;62093;37.614;15.072;2023-06-01T11:00:23;20.04;67.21
73780;SHT30;62093;37.614;15.072;2023-06-01T11:05:42;20.07;67.18
73780;SHT30;62093;37.614;15.072;2023-06-01T11:13:21;20.07;67.09
73780;SHT30;62093;37.614;15.072;2023-06-01T11:19:01;20.10;67.06
73780;SHT30;62093;37.614;15.072;2023-06-01T11:23:57;20.11;67.04
73780;SHT30;62093;37.614;15.072;2023-06-01T11:26:31;20.13;66.96
73780;SHT30;62093;37.614;15.072;2023-06-01T11:29:05;20.11;66.91
73780;SHT30;62093;37.614;15.072;2023-06-01T11:31:37;20.11;66.90
73780;SHT30;62093;37.614;15.072;2023-06-01T11:34:03;20.14;66.87
73780;SHT30;62093;37.614;15.072;2023-06-01T11:36:30;20.15;66.93
73780;SHT30;62093;37.614;15.072;2023-06-01T11:38:56;20.14;66.87
73780;SHT30;62093;37.614;15.072;2023-06-01T11:41:23;20.15;66.84
73780;SHT30;62093;37.614;15.072;2023-06-01T11:43:56;20.13;66.83
73780;SHT30;62093;37.614;15.072;2023-06-01T11:46:22;20.18;66.79
73780;SHT30;62093;37.614;15.072;2023-06-01T11:49:05;20.17;66.81
73780;SHT30;62093;37.614;15.072;2023-06-01T11:51:36;20.18;66.64
73780;SHT30;62093;37.614;15.072;2023-06-01T11:54:03;20.18;66.78
73780;SHT30;62093;37.614;15.072;2023-06-01T11:56:33;20.18;66.77
73780;SHT30;62093;37.614;15.072;2023-06-01T11:59:02;20.20;66.74
73780;SHT30;62093;37.614;15.072;2023-06-01T12:01:34;20.18;66.73
73780;SHT30;62093;37.614;15.072;2023-06-01T12:04:03;20.21;66.70
73780;SHT30;62093;37.614;15.072;2023-06-01T12:06:30;20.21;66.68
73780;SHT30;62093;37.614;15.072;2023-06-01T12:08:56;20.22;66.63
73780;SHT30;62093;37.614;15.072;2023-06-01T12:11:26;20.21;66.61
73780;SHT30;62093;37.614;15.072;2023-06-01T12:13:56;20.24;66.61
73780;SHT30;62093;37.614;15.072;2023-06-01T12:16:22;20.22;66.61
73780;SHT30;62093;37.614;15.072;2023-06-01T12:18:48;20.25;66.56
73780;SHT30;62093;37.614;15.072;2023-06-01T12:21:15;20.27;66.51
73780;SHT30;62093;37.614;15.072;2023-06-01T12:23:48;20.25;66.50
73780;SHT30;62093;37.614;15.072;2023-06-01T12:26:14;20.25;66.48
73780;SHT30;62093;37.614;15.072;2023-06-01T12:28:53;20.27;66.45
73780;SHT30;62093;37.614;15.072;2023-06-01T12:31:21;20.27;66.44
73780;SHT30;62093;37.614;15.072;2023-06-01T12:33:47;20.28;66.40
73780;SHT30;62093;37.614;15.072;2023-06-01T12:36:33;20.29;66.36
73780;SHT30;62093;37.614;15.072;2023-06-01T12:39:01;20.29;66.37
73780;SHT30;62093;37.614;15.072;2023-06-01T12:41:30;20.31;66.37
73780;SHT30;62093;37.614;15.072;2023-06-01T12:43:57;20.31;66.34
73780;SHT30;62093;37.614;15.072;2023-06-01T12:46:29;20.32;66.34
73780;SHT30;62093;37.614;15.072;2023-06-01T12:51:38;20.34;66.27
73780;SHT30;62093;37.614;15.072;2023-06-01T12:54:04;20.32;66.25
73780;SHT30;62093;37.614;15.072;2023-06-01T12:56:30;20.34;66.23
73780;SHT30;62093;37.614;15.072;2023-06-01T12:58:56;20.34;66.24
73780;SHT30;62093;37.614;15.072;2023-06-01T13:01:21;20.34;66.20
73780;SHT30;62093;37.614;15.072;2023-06-01T13:03:48;20.34;66.21
73780;SHT30;62093;37.614;15.072;2023-06-01T13:06:17;20.35;66.18
73780;SHT30;62093;37.614;15.072;2023-06-01T13:08:43;20.35;66.18
73780;SHT30;62093;37.614;15.072;2023-06-01T13:11:08;20.35;66.16
73780;SHT30;62093;37.614;15.072;2023-06-01T13:13:35;20.36;66.16
73780;SHT30;62093;37.614;15.072;2023-06-01T13:16:01;20.36;66.10
73780;SHT30;62093;37.614;15.072;2023-06-01T13:18:28;20.38;66.08
73780;SHT30;62093;37.614;15.072;2023-06-01T13:20:54;20.38;66.09
73780;SHT30;62093;37.614;15.072;2023-06-01T13:23:21;20.39;66.04
73780;SHT30;62093;37.614;15.072;2023-06-01T13:25:48;20.41;66.04
73780;SHT30;62093;37.614;15.072;2023-06-01T13:28:14;20.38;66.03
73780;SHT30;62093;37.614;15.072;2023-06-01T13:30:41;20.41;66.03
73780;SHT30;62093;37.614;15.072;2023-06-01T13:33:07;20.39;66.03
73780;SHT30;62093;37.614;15.072;2023-06-01T13:35:34;20.41;66.02
73780;SHT30;62093;37.614;15.072;2023-06-01T13:38:02;20.42;65.98
73780;SHT30;62093;37.614;15.072;2023-06-01T13:40:29;20.39;66.03
73780;SHT30;62093;37.614;15.072;2023-06-01T13:42:55;20.39;66.01
73780;SHT30;62093;37.614;15.072;2023-06-01T13:45:21;20.39;65.99
73780;SHT30;62093;37.614;15.072;2023-06-01T13:47:48;20.41;65.96
73780;SHT30;62093;37.614;15.072;2023-06-01T13:50:14;20.41;65.98
73780;SHT30;62093;37.614;15.072;2023-06-01T13:52:40;20.42;65.97
73780;SHT30;62093;37.614;15.072;2023-06-01T13:55:07;20.41;65.93
73780;SHT30;62093;37.614;15.072;2023-06-01T13:57:35;20.44;65.93
73780;SHT30;62093;37.614;15.072;2023-06-01T14:00:03;20.39;65.92
73780;SHT30;62093;37.614;15.072;2023-06-01T14:02:31;20.42;65.96
73780;SHT30;62093;37.614;15.072;2023-06-01T14:04:57;20.44;65.92
73780;SHT30;62093;37.614;15.072;2023-06-01T14:07:24;20.44;65.93
73780;SHT30;62093;37.614;15.072;2023-06-01T14:09:50;20.41;65.87
73780;SHT30;62093;37.614;15.072;2023-06-01T14:12:16;20.44;65.91
73780;SHT30;62093;37.614;15.072;2023-06-01T14:14:42;20.44;65.91
73780;SHT30;62093;37.614;15.072;2023-06-01T14:17:08;20.44;65.88
73780;SHT30;62093;37.614;15.072;2023-06-01T14:19:33;20.44;65.90
73780;SHT30;62093;37.614;15.072;2023-06-01T14:21:59;20.42;65.91
73780;SHT30;62093;37.614;15.072;2023-06-01T14:24:28;20.44;65.87
73780;SHT30;62093;37.614;15.072;2023-06-01T14:26:53;20.45;65.89
73780;SHT30;62093;37.614;15.072;2023-06-01T14:29:20;20.45;65.83
73780;SHT30;62093;37.614;15.072;2023-06-01T14:31:46;20.44;65.85
73780;SHT30;62093;37.614;15.072;2023-06-01T14:34:13;20.44;65.85
73780;SHT30;62093;37.614;15.072;2023-06-01T14:36:39;20.45;65.83
73780;SHT30;62093;37.614;15.072;2023-06-01T14:39:06;20.46;65.84
73780;SHT30;62093;37.614;15.072;2023-06-01T14:41:32;20.41;65.84
73780;SHT30;62093;37.614;15.072;2023-06-01T14:43:58;20.46;65.81
73780;SHT30;62093;37.614;15.072;2023-06-01T14:46:23;20.44;65.81
73780;SHT30;62093;37.614;15.072;2023-06-01T14:48:49;20.45;65.84
73780;SHT30;62093;37.614;15.072;2023-06-01T14:51:15;20.44;65.81
73780;SHT30;62093;37.614;15.072;2023-06-01T14:53:41;20.45;65.82
73780;SHT30;62093;37.614;15.072;2023-06-01T14:56:07;20.44;65.85
73780;SHT30;62093;37.614;15.072;2023-06-01T14:58:34;20.44;65.84
73780;SHT30;62093;37.614;15.072;2023-06-01T15:01:00;20.44;65.81
73780;SHT30;62093;37.614;15.072;2023-06-01T15:03:26;20.46;65.79
73780;SHT30;62093;37.614;15.072;2023-06-01T15:05:52;20.46;65.79
73780;SHT30;62093;37.614;15.072;2023-06-01T15:08:18;20.48;65.80
73780;SHT30;62093;37.614;15.072;2023-06-01T15:10:47;20.45;65.78
73780;SHT30;62093;37.614;15.072;2023-06-01T15:13:13;20.45;65.77
73780;SHT30;62093;37.614;15.072;2023-06-01T15:15:40;20.45;65.74
73780;SHT30;62093;37.614;15.072;2023-06-01T15:18:06;20.46;65.76
73780;SHT30;62093;37.614;15.072;2023-06-01T15:20:32;20.48;65.80
73780;SHT30;62093;37.614;15.072;2023-06-01T15:22:58;20.45;65.78
73780;SHT30;62093;37.614;15.072;2023-06-01T15:25:24;20.46;65.77
73780;SHT30;62093;37.614;15.072;2023-06-01T15:27:50;20.49;65.80
73780;SHT30;62093;37.614;15.072;2023-06-01T15:30:16;20.48;65.73
73780;SHT30;62093;37.614;15.072;2023-06-01T15:32:42;20.49;65.74
73780;SHT30;62093;37.614;15.072;2023-06-01T15:35:08;20.48;65.70
73780;SHT30;62093;37.614;15.072;2023-06-01T15:37:34;20.48;65.70
73780;SHT30;62093;37.614;15.072;2023-06-01T15:40:01;20.49;65.71
73780;SHT30;62093;37.614;15.072;2023-06-01T15:42:27;20.48;65.70
73780;SHT30;62093;37.614;15.072;2023-06-01T15:44:52;20.46;65.72
73780;SHT30;62093;37.614;15.072;2023-06-01T15:47:18;20.48;65.71
73780;SHT30;62093;37.614;15.072;2023-06-01T15:49:44;20.46;65.73
73780;SHT30;62093;37.614;15.072;2023-06-01T15:52:10;20.49;65.75
73780;SHT30;62093;37.614;15.072;2023-06-01T15:54:36;20.48;65.72
73780;SHT30;62093;37.614;15.072;2023-06-01T15:57:02;20.44;65.77
73780;SHT30;62093;37.614;15.072;2023-06-01T15:59:32;20.45;65.77